Hauptseite
METAR-TAF:

METAR-TAF

Flughäfen :

Flughafen Frankfurt-Hahn

Hahn, Deutschland

Breite: 49-57N, Länge: 007-16E, Höhe: 491 m

Beobachtung

Neuester Wetterbericht von vor 12 Minuten, um 11:50 UTC
Wind 6 kt aus West, variierte zwischen Süd/Südwest und Nord/Nordwest
Temperatur 23°C
Luftfeuchtigkeit 38%
Luftdruck 1019 hPa
Sichtweite 10 km oder mehr
keine Wolken unter 1500 m und keine Kumulonimbus oder Gewitterwolken

METAR: EDFH 181150Z 27006KT 200V340 CAVOK 23/08 Q1019

Zeit: 14:02 (12:02 UTC)

Prognose

Neuester Wetterbericht von vor 1 Stunde und 2 Minuten, um 11:00 UTC
Gültige Prognose vom 18 um 12 UTC bis 19 um 12 UTC
Wind 8 kt aus Nordwest
Sichtweite 10 km oder mehr
keine Wolken unter 1500 m und keine Kumulonimbus oder Gewitterwolken
Übergehend zu
vom 18 um 18 UTC bis 18 um 20 UTC
Wind 4 kt aus Nordost

TAF: EDFH 181100Z 1812/1912 32008KT CAVOK BECMG 1818/1820 05004KT

Wetterbeobachtungen und Prognosen von mehr als 4000 Flughäfen (METAR und TAF Bericht).

Die verfügbaren Stationen werden durch gelbe und rote Markierungen auf der Karte dargestellt.

Führen Sie die Maus auf sie, um den Namen der Station zu sehen.

Darauf klicken, um die Beobachtung von Wetterbeobachtungen und Prognosen zu sehen.

Um die Karte zu ändern : klicken Sie auf den grünen Tasten mit einem schwarzen Kreuz Zum Vergrößern, auf den grünen Button mit einem Gedankenstrich zu verkleinern, oder auf die grünen Pfeile für benachbarte Karten.


METAR-TAF: